createdAt,value
2018-06-19T00:03:28.954Z,1008.75
2018-06-19T00:04:28.975Z,1008.78
2018-06-19T00:05:28.997Z,1008.76
2018-06-19T00:06:29.022Z,1008.77
2018-06-19T00:07:29.041Z,1008.78
2018-06-19T00:08:29.071Z,1008.78
2018-06-19T00:09:29.189Z,1008.77
2018-06-19T00:10:29.114Z,1008.76
2018-06-19T00:11:29.137Z,1008.76
2018-06-19T00:12:29.169Z,1008.77
2018-06-19T00:13:29.195Z,1008.77
2018-06-19T00:14:29.215Z,1008.78
2018-06-19T00:15:29.236Z,1008.82
2018-06-19T00:16:29.259Z,1008.83
2018-06-19T00:17:29.285Z,1008.8
2018-06-19T00:18:29.310Z,1008.77
2018-06-19T00:19:29.327Z,1008.72
2018-06-19T00:20:29.356Z,1008.7
2018-06-19T00:21:29.377Z,1008.73
2018-06-19T00:22:29.410Z,1008.75
2018-06-19T00:23:29.423Z,1008.74
2018-06-19T00:24:29.451Z,1008.74
2018-06-19T00:25:29.474Z,1008.76
2018-06-19T00:26:29.494Z,1008.75
2018-06-19T00:27:29.521Z,1008.72
2018-06-19T00:28:29.541Z,1008.77
2018-06-19T00:29:29.569Z,1008.76
2018-06-19T00:30:29.596Z,1008.77
2018-06-19T00:31:29.618Z,1008.77
2018-06-19T00:32:29.643Z,1008.78
2018-06-19T00:33:29.660Z,1008.77
2018-06-19T00:34:29.731Z,1008.79
2018-06-19T00:35:29.708Z,1008.78
2018-06-19T00:36:29.733Z,1008.77
2018-06-19T00:37:29.752Z,1008.77
2018-06-19T00:38:29.782Z,1008.77
2018-06-19T00:39:29.808Z,1008.79
2018-06-19T00:40:29.827Z,1008.79
2018-06-19T00:41:29.850Z,1008.82
2018-06-19T00:42:29.877Z,1008.85
2018-06-19T00:43:29.900Z,1008.79
2018-06-19T00:44:29.921Z,1008.81
2018-06-19T00:45:29.943Z,1008.81
2018-06-19T00:46:29.975Z,1008.81
2018-06-19T00:47:30.000Z,1008.8
2018-06-19T00:48:30.020Z,1008.85
2018-06-19T00:49:30.041Z,1008.84
2018-06-19T00:50:30.063Z,1008.86
2018-06-19T00:51:30.094Z,1008.87
2018-06-19T00:52:30.112Z,1008.84
2018-06-19T00:53:30.136Z,1008.83
2018-06-19T00:54:30.159Z,1008.82
2018-06-19T00:55:30.177Z,1008.8
2018-06-19T00:56:30.232Z,1008.8
2018-06-19T00:57:30.237Z,1008.79
2018-06-19T00:58:30.250Z,1008.82
2018-06-19T00:59:30.278Z,1008.81
2018-06-19T01:00:30.301Z,1008.79
2018-06-19T01:01:30.326Z,1008.79
2018-06-19T01:02:30.345Z,1008.78
2018-06-19T01:03:30.366Z,1008.79
2018-06-19T01:04:30.387Z,1008.79
2018-06-19T01:05:30.416Z,1008.81
2018-06-19T01:06:30.444Z,1008.8
2018-06-19T01:07:30.461Z,1008.79
2018-06-19T01:08:30.486Z,1008.82
2018-06-19T01:09:30.563Z,1008.8
2018-06-19T01:10:30.538Z,1008.84
2018-06-19T01:11:30.561Z,1008.82
2018-06-19T01:12:30.577Z,1008.8
2018-06-19T01:13:30.601Z,1008.8
2018-06-19T01:14:30.623Z,1008.81
2018-06-19T01:15:30.650Z,1008.83
2018-06-19T01:16:30.676Z,1008.82
2018-06-19T01:17:30.700Z,1008.78
2018-06-19T01:18:30.720Z,1008.79
2018-06-19T01:19:30.747Z,1008.82
2018-06-19T01:20:30.762Z,1008.8
2018-06-19T01:21:30.792Z,1008.78
2018-06-19T01:22:30.820Z,1008.82
2018-06-19T01:23:30.840Z,1008.83
2018-06-19T01:24:30.865Z,1008.8
2018-06-19T01:25:30.887Z,1008.76
2018-06-19T01:26:30.908Z,1008.79
2018-06-19T01:27:30.936Z,1008.79
2018-06-19T01:28:30.968Z,1008.79
2018-06-19T01:29:30.981Z,1008.78
2018-06-19T01:30:31.001Z,1008.77
2018-06-19T01:31:31.026Z,1008.82
2018-06-19T01:32:31.043Z,1008.84
2018-06-19T01:33:31.075Z,1008.82
2018-06-19T01:34:31.094Z,1008.79
2018-06-19T01:35:31.119Z,1008.83
2018-06-19T01:36:31.143Z,1008.81
2018-06-19T01:37:31.168Z,1008.79
2018-06-19T01:38:31.187Z,1008.78
2018-06-19T01:39:31.209Z,1008.77
2018-06-19T01:40:31.230Z,1008.78
2018-06-19T01:41:31.260Z,1008.78
2018-06-19T01:42:31.283Z,1008.8
2018-06-19T01:43:31.311Z,1008.79
2018-06-19T01:44:31.324Z,1008.77
2018-06-19T01:45:31.356Z,1008.8
2018-06-19T01:46:31.374Z,1008.83
2018-06-19T01:47:31.401Z,1008.81
2018-06-19T01:48:31.419Z,1008.8
2018-06-19T01:49:31.446Z,1008.77
2018-06-19T01:50:31.465Z,1008.77
2018-06-19T01:51:31.491Z,1008.76
2018-06-19T01:52:31.517Z,1008.8
2018-06-19T01:53:31.539Z,1008.76
2018-06-19T01:54:31.564Z,1008.74
2018-06-19T01:55:31.581Z,1008.77
2018-06-19T01:56:31.609Z,1008.77
2018-06-19T01:57:31.625Z,1008.78
2018-06-19T01:58:31.650Z,1008.81
2018-06-19T01:59:31.677Z,1008.8
2018-06-19T02:00:31.702Z,1008.8
2018-06-19T02:01:31.719Z,1008.74
2018-06-19T02:02:31.750Z,1008.75
2018-06-19T02:03:31.775Z,1008.75
2018-06-19T02:04:31.795Z,1008.78
2018-06-19T02:05:31.819Z,1008.75
2018-06-19T02:06:31.834Z,1008.78
2018-06-19T02:07:31.865Z,1008.78
2018-06-19T02:08:31.885Z,1008.78
2018-06-19T02:09:31.910Z,1008.77
2018-06-19T02:10:31.937Z,1008.74
2018-06-19T02:11:31.957Z,1008.79
2018-06-19T02:12:31.978Z,1008.74
2018-06-19T02:13:31.997Z,1008.76
2018-06-19T02:14:32.022Z,1008.73
2018-06-19T02:15:32.046Z,1008.73
2018-06-19T02:16:32.072Z,1008.71
2018-06-19T02:17:32.090Z,1008.77
2018-06-19T02:18:32.114Z,1008.75
2018-06-19T02:19:32.135Z,1008.71
2018-06-19T02:20:32.164Z,1008.7
2018-06-19T02:21:32.182Z,1008.69
2018-06-19T02:22:32.211Z,1008.68
2018-06-19T02:23:32.228Z,1008.72
2018-06-19T02:24:32.249Z,1008.7
2018-06-19T02:25:32.373Z,1008.7
2018-06-19T02:26:32.295Z,1008.73
2018-06-19T02:27:32.320Z,1008.7
2018-06-19T02:28:32.346Z,1008.7
2018-06-19T02:29:32.366Z,1008.67
2018-06-19T02:30:32.395Z,1008.66
2018-06-19T02:31:32.419Z,1008.63
2018-06-19T02:32:32.441Z,1008.62
2018-06-19T02:33:32.457Z,1008.6
2018-06-19T02:34:32.487Z,1008.64
2018-06-19T02:35:32.512Z,1008.62
2018-06-19T02:36:32.526Z,1008.68
2018-06-19T02:37:32.552Z,1008.6
2018-06-19T02:38:32.579Z,1008.61
2018-06-19T02:39:32.597Z,1008.59
2018-06-19T02:40:32.621Z,1008.62
2018-06-19T02:41:32.648Z,1008.62
2018-06-19T02:42:32.665Z,1008.64
2018-06-19T02:43:32.694Z,1008.62
2018-06-19T02:44:32.717Z,1008.63
2018-06-19T02:45:32.733Z,1008.65
2018-06-19T02:46:32.761Z,1008.61
2018-06-19T02:47:32.806Z,1008.63
2018-06-19T02:48:32.803Z,1008.66
2018-06-19T02:49:32.824Z,1008.67
2018-06-19T02:50:32.852Z,1008.72
2018-06-19T02:51:32.872Z,1008.75
2018-06-19T02:52:32.896Z,1008.76
2018-06-19T02:53:32.918Z,1008.79
2018-06-19T02:54:32.942Z,1008.79
2018-06-19T02:55:32.963Z,1008.78
2018-06-19T02:56:32.989Z,1008.77
2018-06-19T02:57:33.019Z,1008.78
2018-06-19T02:58:33.032Z,1008.82
2018-06-19T02:59:33.056Z,1008.83
2018-06-19T03:00:33.084Z,1008.82
2018-06-19T03:01:33.108Z,1008.85
2018-06-19T03:02:33.123Z,1008.87
2018-06-19T03:03:33.146Z,1008.82
2018-06-19T03:04:33.173Z,1008.83
2018-06-19T03:05:33.194Z,1008.81
2018-06-19T03:06:33.218Z,1008.84
2018-06-19T03:07:33.237Z,1008.86
2018-06-19T03:08:33.267Z,1008.8
2018-06-19T03:09:33.289Z,1008.81
2018-06-19T03:10:33.318Z,1008.76
2018-06-19T03:11:33.335Z,1008.81
2018-06-19T03:12:33.361Z,1008.78
2018-06-19T03:13:33.388Z,1008.8
2018-06-19T03:14:33.404Z,1008.84
2018-06-19T03:15:33.424Z,1008.8
2018-06-19T03:16:33.454Z,1008.77
2018-06-19T03:17:33.466Z,1008.8
2018-06-19T03:18:33.488Z,1008.76
2018-06-19T03:19:33.522Z,1008.77
2018-06-19T03:20:33.535Z,1008.8
2018-06-19T03:21:33.565Z,1008.79
2018-06-19T03:22:33.581Z,1008.82
2018-06-19T03:23:33.611Z,1008.8
2018-06-19T03:24:33.633Z,1008.8
2018-06-19T03:25:33.656Z,1008.88
2018-06-19T03:26:33.676Z,1008.87
2018-06-19T03:27:33.699Z,1008.86
2018-06-19T03:28:33.726Z,1008.89
2018-06-19T03:29:33.745Z,1008.88
2018-06-19T03:30:33.766Z,1008.87
2018-06-19T03:31:33.787Z,1008.91
2018-06-19T03:32:33.815Z,1008.85
2018-06-19T03:33:33.837Z,1008.87
2018-06-19T03:34:33.858Z,1008.87
2018-06-19T03:35:33.877Z,1008.88
2018-06-19T03:36:33.907Z,1008.87
2018-06-19T03:37:33.928Z,1008.92
2018-06-19T03:38:33.955Z,1008.92
2018-06-19T03:39:33.978Z,1008.93
2018-06-19T03:40:33.997Z,1008.94
2018-06-19T03:41:34.028Z,1008.93
2018-06-19T03:42:34.041Z,1008.9
2018-06-19T03:43:34.067Z,1008.85
2018-06-19T03:44:34.095Z,1008.87
2018-06-19T03:45:34.112Z,1008.89
2018-06-19T03:46:34.132Z,1008.95
2018-06-19T03:47:34.157Z,1008.94
2018-06-19T03:48:34.180Z,1008.96
2018-06-19T03:49:34.197Z,1008.98
2018-06-19T03:50:34.224Z,1008.98
2018-06-19T03:51:34.244Z,1008.99
2018-06-19T03:52:34.266Z,1009.04
2018-06-19T03:53:34.296Z,1009.02
2018-06-19T03:54:34.313Z,1009.06
2018-06-19T03:55:34.343Z,1009.06
2018-06-19T03:56:34.366Z,1009.09
2018-06-19T03:57:34.388Z,1009.11
2018-06-19T03:58:34.411Z,1009.12
2018-06-19T03:59:34.425Z,1009.17
2018-06-19T04:00:34.450Z,1009.15
2018-06-19T04:01:34.476Z,1009.12
2018-06-19T04:02:34.500Z,1009.12
2018-06-19T04:03:34.527Z,1009.15
2018-06-19T04:04:34.548Z,1009.12
2018-06-19T04:05:34.570Z,1009.15
2018-06-19T04:06:34.588Z,1009.16
2018-06-19T04:07:34.611Z,1009.16
2018-06-19T04:08:34.636Z,1009.18
2018-06-19T04:09:34.659Z,1009.19
2018-06-19T04:10:34.742Z,1009.21
2018-06-19T04:11:34.707Z,1009.2
2018-06-19T04:12:34.724Z,1009.21
2018-06-19T04:13:34.750Z,1009.21
2018-06-19T04:14:34.768Z,1009.24
2018-06-19T04:15:34.793Z,1009.27
2018-06-19T04:16:34.812Z,1009.25
2018-06-19T04:17:34.839Z,1009.26
2018-06-19T04:18:34.861Z,1009.25
2018-06-19T04:19:34.885Z,1009.28
2018-06-19T04:20:34.908Z,1009.24
2018-06-19T04:21:34.935Z,1009.26
2018-06-19T04:22:34.951Z,1009.27
2018-06-19T04:23:34.971Z,1009.27
2018-06-19T04:24:34.996Z,1009.31
2018-06-19T04:25:35.019Z,1009.32
2018-06-19T04:26:35.050Z,1009.29
2018-06-19T04:27:35.066Z,1009.3
2018-06-19T04:28:35.085Z,1009.33
2018-06-19T04:29:35.113Z,1009.39
2018-06-19T04:30:35.136Z,1009.38
2018-06-19T04:31:35.154Z,1009.38
2018-06-19T04:32:35.184Z,1009.39
2018-06-19T04:33:35.214Z,1009.39
2018-06-19T04:34:35.227Z,1009.39
2018-06-19T04:35:35.251Z,1009.38
2018-06-19T04:36:35.269Z,1009.38
2018-06-19T04:37:35.297Z,1009.42
2018-06-19T04:38:35.316Z,1009.43
2018-06-19T04:39:35.344Z,1009.41
2018-06-19T04:40:35.360Z,1009.38
2018-06-19T04:41:35.384Z,1009.43
2018-06-19T04:42:35.409Z,1009.39
2018-06-19T04:43:35.437Z,1009.34
2018-06-19T04:44:35.461Z,1009.36
2018-06-19T04:45:35.472Z,1009.4
2018-06-19T04:46:35.498Z,1009.39
2018-06-19T04:47:35.527Z,1009.42
2018-06-19T04:48:35.551Z,1009.4
2018-06-19T04:49:35.566Z,1009.39
2018-06-19T04:50:35.595Z,1009.37
2018-06-19T04:51:35.609Z,1009.39
2018-06-19T04:52:35.631Z,1009.37
2018-06-19T04:53:35.663Z,1009.38
2018-06-19T04:54:35.683Z,1009.4
2018-06-19T04:55:35.702Z,1009.39
2018-06-19T04:56:35.725Z,1009.46
2018-06-19T04:57:35.752Z,1009.4
2018-06-19T04:58:35.774Z,1009.44
2018-06-19T04:59:35.796Z,1009.39
2018-06-19T05:00:35.820Z,1009.46
2018-06-19T05:01:35.844Z,1009.4
2018-06-19T05:02:35.865Z,1009.4
2018-06-19T05:03:35.888Z,1009.42
2018-06-19T05:04:35.911Z,1009.45
2018-06-19T05:05:35.931Z,1009.39
2018-06-19T05:06:35.958Z,1009.42
2018-06-19T05:07:35.974Z,1009.44
2018-06-19T05:08:36.003Z,1009.44
2018-06-19T05:09:36.025Z,1009.49
2018-06-19T05:10:36.051Z,1009.49
2018-06-19T05:11:36.069Z,1009.5
2018-06-19T05:12:36.094Z,1009.47
2018-06-19T05:13:36.113Z,1009.5
2018-06-19T05:14:36.133Z,1009.55
2018-06-19T05:15:36.165Z,1009.53
2018-06-19T05:16:36.190Z,1009.56
2018-06-19T05:17:36.208Z,1009.57
2018-06-19T05:18:36.233Z,1009.53
2018-06-19T05:19:36.253Z,1009.53
2018-06-19T05:20:36.275Z,1009.55
2018-06-19T05:21:36.299Z,1009.58
2018-06-19T05:22:36.316Z,1009.57
2018-06-19T05:23:36.340Z,1009.56
2018-06-19T05:24:36.364Z,1009.58
2018-06-19T05:25:36.390Z,1009.57
2018-06-19T05:26:36.412Z,1009.59
2018-06-19T05:27:36.434Z,1009.61
2018-06-19T05:28:36.455Z,1009.63
2018-06-19T05:29:36.485Z,1009.63
2018-06-19T05:30:36.501Z,1009.66
2018-06-19T05:31:36.525Z,1009.72
2018-06-19T05:32:36.547Z,1009.71
2018-06-19T05:33:36.568Z,1009.69
2018-06-19T05:34:36.590Z,1009.72
2018-06-19T05:35:36.614Z,1009.72
2018-06-19T05:36:36.642Z,1009.76
2018-06-19T05:37:36.663Z,1009.75
2018-06-19T05:38:36.683Z,1009.77
2018-06-19T05:39:36.709Z,1009.76
2018-06-19T05:40:36.734Z,1009.8
2018-06-19T05:41:36.755Z,1009.82
2018-06-19T05:42:36.778Z,1009.83
2018-06-19T05:43:36.809Z,1009.84
2018-06-19T05:44:36.821Z,1009.8
2018-06-19T05:45:36.849Z,1009.8
2018-06-19T05:46:36.876Z,1009.79
2018-06-19T05:47:36.890Z,1009.81
2018-06-19T05:48:36.922Z,1009.82
2018-06-19T05:49:36.944Z,1009.81
2018-06-19T05:50:36.963Z,1009.83
2018-06-19T05:51:36.993Z,1009.83
2018-06-19T05:52:37.012Z,1009.84
2018-06-19T05:53:37.037Z,1009.89
2018-06-19T05:54:37.060Z,1009.87
2018-06-19T05:55:37.083Z,1009.84
2018-06-19T05:56:37.113Z,1009.89
2018-06-19T05:57:37.133Z,1009.84
2018-06-19T05:58:37.148Z,1009.87
2018-06-19T05:59:37.201Z,1009.9
2018-06-19T06:00:37.193Z,1009.88
2018-06-19T06:01:37.222Z,1009.87
2018-06-19T06:02:37.293Z,1009.85
2018-06-19T06:03:37.269Z,1009.87
2018-06-19T06:04:37.287Z,1009.88
2018-06-19T06:05:37.398Z,1009.82
2018-06-19T06:06:37.339Z,1009.91
2018-06-19T06:07:37.364Z,1009.93
2018-06-19T06:08:37.382Z,1009.96
2018-06-19T06:09:37.407Z,1009.94
2018-06-19T06:10:37.479Z,1009.95
2018-06-19T06:11:37.457Z,1009.94
2018-06-19T06:12:37.473Z,1009.94
2018-06-19T06:13:37.495Z,1009.94
2018-06-19T06:14:37.522Z,1009.95
2018-06-19T06:15:37.605Z,1009.95
2018-06-19T06:16:37.676Z,1009.94
2018-06-19T06:17:37.591Z,1009.93
2018-06-19T06:18:37.614Z,1009.91
2018-06-19T06:19:37.641Z,1009.94
2018-06-19T06:20:37.663Z,1009.96
2018-06-19T06:21:37.689Z,1009.96
2018-06-19T06:22:37.712Z,1009.98
2018-06-19T06:23:37.739Z,1009.97
2018-06-19T06:24:37.759Z,1009.98
2018-06-19T06:25:37.778Z,1010
2018-06-19T06:26:37.806Z,1010
2018-06-19T06:27:37.830Z,1010
2018-06-19T06:28:37.849Z,1009.98
2018-06-19T06:29:37.876Z,1009.98
2018-06-19T06:30:37.897Z,1009.98
2018-06-19T06:31:37.924Z,1009.99
2018-06-19T06:32:37.948Z,1010.03
2018-06-19T06:33:37.974Z,1010.02
2018-06-19T06:34:37.990Z,1010
2018-06-19T06:35:38.015Z,1010.03
2018-06-19T06:36:38.042Z,1010.01
2018-06-19T06:37:38.064Z,1009.99
2018-06-19T06:38:38.083Z,1010.02
2018-06-19T06:39:38.116Z,1010.02
2018-06-19T06:40:38.137Z,1009.99
2018-06-19T06:41:38.157Z,1010
2018-06-19T06:42:38.186Z,1009.98
2018-06-19T06:43:38.210Z,1010.04
2018-06-19T06:44:38.232Z,1010.03
2018-06-19T06:45:38.254Z,1009.99
2018-06-19T06:46:38.279Z,1010.01
2018-06-19T06:47:38.305Z,1010.01
2018-06-19T06:48:38.327Z,1009.98
2018-06-19T06:49:38.346Z,1009.97
2018-06-19T06:50:38.370Z,1010.02
2018-06-19T06:51:38.393Z,1010.02
2018-06-19T06:52:38.433Z,1010.02
2018-06-19T06:53:38.441Z,1010.06
2018-06-19T06:54:38.464Z,1010.03
2018-06-19T06:55:38.495Z,1010.02
2018-06-19T06:56:38.513Z,1010.03
2018-06-19T06:57:38.540Z,1010.02
2018-06-19T06:58:38.564Z,1010.03
2018-06-19T06:59:38.591Z,1010.01
2018-06-19T07:00:38.611Z,1010.04
2018-06-19T07:01:38.637Z,1009.98
2018-06-19T07:02:38.654Z,1010
2018-06-19T07:03:38.679Z,1010.01
2018-06-19T07:04:38.707Z,1009.97
2018-06-19T07:05:38.727Z,1010
2018-06-19T07:06:38.752Z,1009.99
2018-06-19T07:07:38.819Z,1010
2018-06-19T07:08:38.804Z,1010.02
2018-06-19T07:09:38.827Z,1010.01
2018-06-19T07:10:38.850Z,1009.93
2018-06-19T07:11:38.872Z,1009.98
2018-06-19T07:12:38.899Z,1009.96
2018-06-19T07:13:38.919Z,1010
2018-06-19T07:14:38.943Z,1009.98
2018-06-19T07:15:38.984Z,1010
2018-06-19T07:16:38.990Z,1009.99
2018-06-19T07:17:39.015Z,1009.97
2018-06-19T07:18:39.043Z,1010
2018-06-19T07:19:39.064Z,1009.99
2018-06-19T07:20:39.088Z,1010.02
2018-06-19T07:21:39.113Z,1010
2018-06-19T07:22:39.138Z,1009.99
2018-06-19T07:23:39.155Z,1010.06
2018-06-19T07:24:39.186Z,1010.04
2018-06-19T07:25:39.202Z,1010.09
2018-06-19T07:26:39.228Z,1010.1
2018-06-19T07:27:39.257Z,1010.11
2018-06-19T07:28:39.283Z,1010.08
2018-06-19T07:29:39.301Z,1010.13
2018-06-19T07:30:39.333Z,1010.13
2018-06-19T07:31:39.354Z,1010.11
2018-06-19T07:32:39.379Z,1010.11
2018-06-19T07:33:39.402Z,1010.13
2018-06-19T07:34:39.421Z,1010.11
2018-06-19T07:35:39.443Z,1010.14
2018-06-19T07:36:39.524Z,1010.13
2018-06-19T07:37:39.499Z,1010.13
2018-06-19T07:38:39.527Z,1010.12
2018-06-19T07:39:39.547Z,1010.14
2018-06-19T07:40:39.572Z,1010.13
2018-06-19T07:41:39.596Z,1010.12
2018-06-19T07:42:39.618Z,1010.18
2018-06-19T07:43:39.639Z,1010.19
2018-06-19T07:44:39.764Z,1010.18
2018-06-19T07:45:39.692Z,1010.21
2018-06-19T07:46:39.720Z,1010.22
2018-06-19T07:47:39.737Z,1010.22
2018-06-19T07:48:39.766Z,1010.23
2018-06-19T07:49:39.789Z,1010.17
2018-06-19T07:50:39.807Z,1010.19
2018-06-19T07:51:39.834Z,1010.17
2018-06-19T07:52:39.863Z,1010.18
2018-06-19T07:53:39.890Z,1010.19
2018-06-19T07:54:39.909Z,1010.2
2018-06-19T07:55:39.957Z,1010.18
2018-06-19T07:56:39.973Z,1010.18
2018-06-19T07:57:39.987Z,1010.18
2018-06-19T07:58:40.005Z,1010.16
2018-06-19T07:59:40.041Z,1010.15
2018-06-19T08:00:40.062Z,1010.14
2018-06-19T08:01:40.088Z,1010.18
2018-06-19T08:02:40.110Z,1010.18
2018-06-19T08:03:40.136Z,1010.18
2018-06-19T08:04:40.164Z,1010.14
2018-06-19T08:05:40.180Z,1010.12
2018-06-19T08:06:40.202Z,1010.12
2018-06-19T08:07:40.233Z,1010.09
2018-06-19T08:08:40.256Z,1010.11
2018-06-19T08:09:40.284Z,1010.12
2018-06-19T08:10:40.300Z,1010.08
2018-06-19T08:11:40.328Z,1010.09
2018-06-19T08:12:40.358Z,1010.02
2018-06-19T08:13:40.376Z,1010.01
2018-06-19T08:14:40.406Z,1010.04
2018-06-19T08:15:40.427Z,1010.03
2018-06-19T08:16:40.458Z,1010.04
2018-06-19T08:17:40.474Z,1010.01
2018-06-19T08:18:40.501Z,1010.02
2018-06-19T08:19:40.524Z,1010.09
2018-06-19T08:20:40.554Z,1010.09
2018-06-19T08:21:40.580Z,1010.08
2018-06-19T08:22:40.660Z,1010.12
2018-06-19T08:23:40.629Z,1010.06
2018-06-19T08:24:40.651Z,1010.06
2018-06-19T08:25:40.681Z,1010.06
2018-06-19T08:26:40.916Z,1010.07
2018-06-19T08:27:40.728Z,1009.99
2018-06-19T08:28:40.754Z,1010.03
2018-06-19T08:29:40.785Z,1010.01
2018-06-19T08:30:40.808Z,1010.01
2018-06-19T08:31:40.827Z,1010.05
2018-06-19T08:32:40.855Z,1010.07
2018-06-19T08:33:40.874Z,1010.06
2018-06-19T08:34:40.907Z,1010.08
2018-06-19T08:35:40.931Z,1010.13
2018-06-19T08:36:40.950Z,1010.08
2018-06-19T08:37:40.980Z,1010.11
2018-06-19T08:38:41.003Z,1010.11
2018-06-19T08:39:41.033Z,1010.07
2018-06-19T08:40:41.058Z,1010.04
2018-06-19T08:41:41.103Z,1010.07
2018-06-19T08:42:41.110Z,1010.09
2018-06-19T08:43:41.127Z,1010.1
2018-06-19T08:44:41.156Z,1010.13
2018-06-19T08:45:41.177Z,1010.11
2018-06-19T08:46:41.202Z,1010.11
2018-06-19T08:47:41.238Z,1010.19
2018-06-19T08:48:41.263Z,1010.19
2018-06-19T08:49:41.279Z,1010.22
2018-06-19T08:50:41.309Z,1010.24
2018-06-19T08:51:41.334Z,1010.24
2018-06-19T08:52:41.359Z,1010.21
2018-06-19T08:53:41.387Z,1010.15
2018-06-19T08:54:41.408Z,1010.12
2018-06-19T08:55:41.435Z,1010.15
2018-06-19T08:56:41.459Z,1010.11
2018-06-19T08:57:41.488Z,1010.16
2018-06-19T08:58:41.514Z,1010.2
2018-06-19T08:59:41.542Z,1010.18
2018-06-19T09:00:41.563Z,1010.2
2018-06-19T09:01:41.591Z,1010.15
2018-06-19T09:02:41.611Z,1010.17
2018-06-19T09:03:41.637Z,1010.15
2018-06-19T09:04:41.668Z,1010.19
2018-06-19T09:05:41.692Z,1010.23
2018-06-19T09:06:41.718Z,1010.19
2018-06-19T09:07:41.744Z,1010.15
2018-06-19T09:08:41.767Z,1010.12
2018-06-19T09:09:41.796Z,1010.12
2018-06-19T09:10:41.824Z,1010.09
2018-06-19T09:11:41.850Z,1010.09
2018-06-19T09:12:41.869Z,1010.07
2018-06-19T09:13:41.897Z,1010.07
2018-06-19T09:14:41.928Z,1010.06
2018-06-19T09:15:41.950Z,1010.07
2018-06-19T09:16:41.976Z,1010.07
2018-06-19T09:17:42.004Z,1010.03
2018-06-19T09:18:42.029Z,1010.06
2018-06-19T09:19:42.061Z,1010.04
2018-06-19T09:20:42.083Z,1010.08
2018-06-19T09:21:42.115Z,1010.13
2018-06-19T09:22:42.131Z,1010.11
2018-06-19T09:23:42.159Z,1010.05
2018-06-19T09:24:42.192Z,1010.09
2018-06-19T09:25:42.210Z,1010.06
2018-06-19T09:26:42.243Z,1010.08
2018-06-19T09:27:42.269Z,1010.07
2018-06-19T09:28:42.292Z,1010.04
2018-06-19T09:29:42.323Z,1010.09
2018-06-19T09:30:42.343Z,1010.06
2018-06-19T09:31:42.521Z,1010.01
2018-06-19T09:32:42.396Z,1010.06
2018-06-19T09:33:42.421Z,1010.05
2018-06-19T09:34:42.454Z,1010.04
2018-06-19T09:35:42.481Z,1010.03
2018-06-19T09:36:42.500Z,1010.04
2018-06-19T09:37:42.527Z,1009.99
2018-06-19T09:38:42.558Z,1010.01
2018-06-19T09:39:42.615Z,1009.98
2018-06-19T09:40:42.611Z,1010.01
2018-06-19T09:41:42.639Z,1009.97
2018-06-19T09:42:42.658Z,1009.93
2018-06-19T09:43:42.699Z,1009.89
2018-06-19T09:44:42.716Z,1009.91
2018-06-19T09:45:42.747Z,1009.9
2018-06-19T09:46:42.768Z,1009.95
2018-06-19T09:47:42.796Z,1009.96
2018-06-19T09:48:42.824Z,1009.99
2018-06-19T09:49:42.846Z,1009.94
2018-06-19T09:50:42.891Z,1009.91
2018-06-19T09:51:42.903Z,1009.93
2018-06-19T09:52:42.932Z,1009.93
2018-06-19T09:53:42.985Z,1009.97
2018-06-19T09:54:42.990Z,1009.99
2018-06-19T09:55:43.012Z,1009.96
2018-06-19T09:56:43.037Z,1009.97
2018-06-19T09:57:43.067Z,1009.94
2018-06-19T09:58:43.094Z,1009.88
2018-06-19T09:59:43.117Z,1009.86
2018-06-19T10:00:43.149Z,1009.86
2018-06-19T10:01:43.171Z,1009.87
2018-06-19T10:02:43.203Z,1009.91
2018-06-19T10:03:43.230Z,1009.88
2018-06-19T10:04:43.262Z,1009.98
2018-06-19T10:05:43.303Z,1009.96
2018-06-19T10:06:43.313Z,1009.96
2018-06-19T10:07:43.346Z,1009.96
2018-06-19T10:08:43.364Z,1009.95
2018-06-19T10:09:43.400Z,1010.01
2018-06-19T10:10:43.425Z,1010
2018-06-19T10:11:43.452Z,1010.01
2018-06-19T10:12:43.584Z,1010.01
2018-06-19T10:13:43.509Z,1009.96
2018-06-19T10:14:43.541Z,1009.98
2018-06-19T10:15:43.567Z,1009.99
2018-06-19T10:16:43.588Z,1009.94
2018-06-19T10:17:43.622Z,1009.91
2018-06-19T10:18:43.643Z,1009.95
2018-06-19T10:19:43.680Z,1010.02
2018-06-19T10:20:43.702Z,1010.07
2018-06-19T10:21:43.734Z,1010.09
2018-06-19T10:22:43.763Z,1010.08
2018-06-19T10:23:43.788Z,1010.01
2018-06-19T10:24:43.818Z,1009.99
2018-06-19T10:25:43.840Z,1010.03
2018-06-19T10:26:43.872Z,1009.97
2018-06-19T10:27:43.899Z,1009.99
2018-06-19T10:28:43.927Z,1010.02
2018-06-19T10:29:43.962Z,1010.03
2018-06-19T10:30:43.989Z,1010.03
2018-06-19T10:31:44.024Z,1010
2018-06-19T10:32:44.039Z,1010
2018-06-19T10:33:44.098Z,1010.02
2018-06-19T10:34:44.105Z,1010.09
2018-06-19T10:35:44.130Z,1010.07
2018-06-19T10:36:44.161Z,1009.99
2018-06-19T10:37:44.191Z,1010.05
2018-06-19T10:38:44.216Z,1010.08
2018-06-19T10:39:44.246Z,1010.07
2018-06-19T10:40:44.275Z,1010.12
2018-06-19T10:41:44.308Z,1010.08
2018-06-19T10:42:44.338Z,1010.07
2018-06-19T10:43:44.369Z,1010.05
2018-06-19T10:44:44.391Z,1010.08
2018-06-19T10:45:44.425Z,1010.12
2018-06-19T10:46:44.454Z,1010.13
2018-06-19T10:47:44.483Z,1010.18
2018-06-19T10:48:44.508Z,1010.13
2018-06-19T10:49:44.535Z,1010.15
2018-06-19T10:50:44.568Z,1010.15
2018-06-19T10:51:44.595Z,1010.13
2018-06-19T10:52:44.661Z,1010.12
2018-06-19T10:53:44.661Z,1010.08
2018-06-19T10:54:44.692Z,1010.12
2018-06-19T10:55:44.728Z,1010.09
2018-06-19T10:56:44.749Z,1010.06
2018-06-19T10:57:44.781Z,1010.08
2018-06-19T10:58:44.805Z,1010.07
2018-06-19T10:59:44.832Z,1010.04
2018-06-19T11:00:44.882Z,1010.12
2018-06-19T11:01:44.901Z,1010.12
2018-06-19T11:02:44.931Z,1010.14
2018-06-19T11:03:44.960Z,1010.14
2018-06-19T11:04:44.982Z,1010.09
2018-06-19T11:05:45.024Z,1010.12
2018-06-19T11:06:45.051Z,1010.13
2018-06-19T11:07:45.075Z,1010.15
2018-06-19T11:08:45.111Z,1010.08
2018-06-19T11:09:45.135Z,1010.11
2018-06-19T11:10:45.162Z,1010.1
2018-06-19T11:11:45.200Z,1010.08
2018-06-19T11:12:45.274Z,1010.07
2018-06-19T11:13:45.253Z,1010.12
2018-06-19T11:14:45.291Z,1010.1
2018-06-19T11:15:45.323Z,1010.14
2018-06-19T11:16:45.353Z,1010.14
2018-06-19T11:17:45.380Z,1010.12
2018-06-19T11:18:45.405Z,1010.12
2018-06-19T11:19:45.448Z,1010.1
2018-06-19T11:20:45.469Z,1010.06
2018-06-19T11:21:45.503Z,1010.09
2018-06-19T11:22:45.530Z,1010.11
2018-06-19T11:23:45.566Z,1010.06
2018-06-19T11:24:45.596Z,1010.07
2018-06-19T11:25:45.664Z,1010.11
2018-06-19T11:26:45.654Z,1010.11
2018-06-19T11:27:45.683Z,1010.1
2018-06-19T11:28:45.717Z,1010.14
2018-06-19T11:29:45.749Z,1010.14
2018-06-19T11:30:45.778Z,1010.17
2018-06-19T11:31:45.805Z,1010.16
2018-06-19T11:32:45.841Z,1010.17
2018-06-19T11:33:45.872Z,1010.2
2018-06-19T11:34:45.897Z,1010.21
2018-06-19T11:35:45.929Z,1010.16
2018-06-19T11:36:45.968Z,1010.21
2018-06-19T11:37:45.999Z,1010.19
2018-06-19T11:38:46.024Z,1010.26
2018-06-19T11:39:46.053Z,1010.24
2018-06-19T11:40:46.084Z,1010.23
2018-06-19T11:41:46.121Z,1010.23
2018-06-19T11:42:46.148Z,1010.22
2018-06-19T11:43:46.183Z,1010.23
2018-06-19T11:44:46.228Z,1010.28
2018-06-19T11:45:46.247Z,1010.21
2018-06-19T11:46:46.276Z,1010.22
2018-06-19T11:47:46.315Z,1010.21
2018-06-19T11:48:46.335Z,1010.2
2018-06-19T11:49:46.364Z,1010.25
2018-06-19T11:50:46.396Z,1010.22
2018-06-19T11:51:46.439Z,1010.27
2018-06-19T11:52:46.458Z,1010.29
2018-06-19T11:53:46.488Z,1010.26
2018-06-19T11:54:46.524Z,1010.24
2018-06-19T11:55:46.560Z,1010.21
2018-06-19T11:56:46.584Z,1010.21
2018-06-19T11:57:46.623Z,1010.19
2018-06-19T11:58:46.654Z,1010.22
2018-06-19T11:59:46.685Z,1010.2
2018-06-19T12:00:46.710Z,1010.19
2018-06-19T12:01:46.811Z,1010.22
2018-06-19T12:02:46.770Z,1010.23
2018-06-19T12:03:46.810Z,1010.19
2018-06-19T12:04:46.840Z,1010.21
2018-06-19T12:05:46.878Z,1010.25
2018-06-19T12:06:46.932Z,1010.24
2018-06-19T12:07:46.930Z,1010.27
2018-06-19T12:08:46.969Z,1010.25
2018-06-19T12:09:46.995Z,1010.23
2018-06-19T12:10:47.024Z,1010.26
2018-06-19T12:11:47.058Z,1010.27